sensor_id;sensor_type;location;lat;lon;timestamp;pressure;altitude;pressure_sealevel;temperature;humidity
50684;BME280;36654;45.042;38.994;2023-04-04T00:01:23;101218.09;;;11.63;65.69
50684;BME280;36654;45.042;38.994;2023-04-04T00:03:48;101207.44;;;11.60;65.92
50684;BME280;36654;45.042;38.994;2023-04-04T00:06:19;101220.72;;;11.60;66.26
50684;BME280;36654;45.042;38.994;2023-04-04T00:08:45;101227.72;;;11.53;66.27
50684;BME280;36654;45.042;38.994;2023-04-04T00:11:11;101225.91;;;11.51;66.72
50684;BME280;36654;45.042;38.994;2023-04-04T00:13:38;101228.56;;;11.51;66.78
50684;BME280;36654;45.042;38.994;2023-04-04T00:16:04;101225.88;;;11.49;66.97
50684;BME280;36654;45.042;38.994;2023-04-04T00:18:30;101204.41;;;11.35;66.99
50684;BME280;36654;45.042;38.994;2023-04-04T00:20:57;101194.50;;;11.25;66.98
50684;BME280;36654;45.042;38.994;2023-04-04T00:23:22;101234.63;;;11.45;67.12
50684;BME280;36654;45.042;38.994;2023-04-04T00:25:49;101231.06;;;11.43;67.30
50684;BME280;36654;45.042;38.994;2023-04-04T00:28:19;101218.59;;;11.37;67.28
50684;BME280;36654;45.042;38.994;2023-04-04T00:30:45;101225.75;;;11.41;67.33
50684;BME280;36654;45.042;38.994;2023-04-04T00:33:12;101231.03;;;11.40;67.24
50684;BME280;36654;45.042;38.994;2023-04-04T00:35:37;101231.03;;;11.38;67.34
50684;BME280;36654;45.042;38.994;2023-04-04T00:38:03;101222.97;;;11.35;67.38
50684;BME280;36654;45.042;38.994;2023-04-04T00:40:28;101239.00;;;11.38;67.35
50684;BME280;36654;45.042;38.994;2023-04-04T00:42:54;101229.97;;;11.30;67.55
50684;BME280;36654;45.042;38.994;2023-04-04T00:45:20;101237.13;;;11.34;67.59
50684;BME280;36654;45.042;38.994;2023-04-04T00:47:46;101233.56;;;11.32;67.66
50684;BME280;36654;45.042;38.994;2023-04-04T00:50:12;101176.38;;;10.96;67.65
50684;BME280;36654;45.042;38.994;2023-04-04T00:52:37;101244.97;;;11.28;67.62
50684;BME280;36654;45.042;38.994;2023-04-04T00:55:03;101186.09;;;10.96;67.71
50684;BME280;36654;45.042;38.994;2023-04-04T00:57:29;101230.63;;;11.15;67.79
50684;BME280;36654;45.042;38.994;2023-04-04T00:59:58;101235.09;;;11.18;68.07
50684;BME280;36654;45.042;38.994;2023-04-04T01:02:24;101218.94;;;11.04;67.91
50684;BME280;36654;45.042;38.994;2023-04-04T01:04:50;101242.03;;;11.10;68.00
50684;BME280;36654;45.042;38.994;2023-04-04T01:07:17;101228.72;;;11.07;68.35
50684;BME280;36654;45.042;38.994;2023-04-04T01:09:43;101235.81;;;11.08;68.30
50684;BME280;36654;45.042;38.994;2023-04-04T01:12:09;101249.97;;;11.08;68.40
50684;BME280;36654;45.042;38.994;2023-04-04T01:14:35;101167.75;;;10.58;68.30
50684;BME280;36654;45.042;38.994;2023-04-04T01:17:01;101247.16;;;11.00;68.52
50684;BME280;36654;45.042;38.994;2023-04-04T01:19:59;101235.59;;;10.94;68.68
50684;BME280;36654;45.042;38.994;2023-04-04T01:22:29;101242.53;;;10.87;69.05
50684;BME280;36654;45.042;38.994;2023-04-04T01:24:57;101196.84;;;10.55;69.79
50684;BME280;36654;45.042;38.994;2023-04-04T01:27:23;101243.88;;;10.65;70.72
50684;BME280;36654;45.042;38.994;2023-04-04T01:29:49;101242.75;;;10.52;72.07
50684;BME280;36654;45.042;38.994;2023-04-04T01:32:19;101243.41;;;10.39;72.68
50684;BME280;36654;45.042;38.994;2023-04-04T01:35:27;101224.47;;;10.22;73.10
50684;BME280;36654;45.042;38.994;2023-04-04T01:40:27;101241.22;;;10.21;73.97
50684;BME280;36654;45.042;38.994;2023-04-04T01:42:59;101244.63;;;10.14;74.31
50684;BME280;36654;45.042;38.994;2023-04-04T01:45:25;101241.91;;;10.12;74.58
50684;BME280;36654;45.042;38.994;2023-04-04T01:47:51;101241.81;;;10.06;75.05
50684;BME280;36654;45.042;38.994;2023-04-04T01:50:17;101231.13;;;10.03;74.98
50684;BME280;36654;45.042;38.994;2023-04-04T01:52:43;101210.47;;;9.87;75.50
50684;BME280;36654;45.042;38.994;2023-04-04T01:55:08;101238.91;;;9.96;75.61
50684;BME280;36654;45.042;38.994;2023-04-04T01:57:34;101226.31;;;9.85;75.90
50684;BME280;36654;45.042;38.994;2023-04-04T02:00:00;101245.84;;;9.90;76.20
50684;BME280;36654;45.042;38.994;2023-04-04T02:02:26;101239.56;;;9.85;76.55
50684;BME280;36654;45.042;38.994;2023-04-04T02:04:51;101248.41;;;9.86;76.69
50684;BME280;36654;45.042;38.994;2023-04-04T02:07:18;101222.22;;;9.59;77.09
50684;BME280;36654;45.042;38.994;2023-04-04T02:09:44;101252.81;;;9.85;77.24
50684;BME280;36654;45.042;38.994;2023-04-04T02:12:09;101234.09;;;9.76;77.36
50684;BME280;36654;45.042;38.994;2023-04-04T02:14:36;101255.34;;;9.81;77.31
50684;BME280;36654;45.042;38.994;2023-04-04T02:17:02;101242.84;;;9.74;77.68
50684;BME280;36654;45.042;38.994;2023-04-04T02:19:27;101242.84;;;9.74;77.90
50684;BME280;36654;45.042;38.994;2023-04-04T02:21:53;101249.94;;;9.75;77.88
50684;BME280;36654;45.042;38.994;2023-04-04T02:24:20;101246.28;;;9.69;77.56
50684;BME280;36654;45.042;38.994;2023-04-04T02:26:46;101253.47;;;9.75;77.69
50684;BME280;36654;45.042;38.994;2023-04-04T02:29:12;101250.81;;;9.75;77.89
50684;BME280;36654;45.042;38.994;2023-04-04T02:31:38;101263.22;;;9.76;77.66
50684;BME280;36654;45.042;38.994;2023-04-04T02:34:04;101223.81;;;9.52;77.84
50684;BME280;36654;45.042;38.994;2023-04-04T02:36:29;101239.75;;;9.55;77.94
50684;BME280;36654;45.042;38.994;2023-04-04T02:38:55;101262.22;;;9.72;77.86
50684;BME280;36654;45.042;38.994;2023-04-04T02:41:21;101260.44;;;9.71;77.72
50684;BME280;36654;45.042;38.994;2023-04-04T02:43:47;101259.56;;;9.71;77.84
50684;BME280;36654;45.042;38.994;2023-04-04T02:46:13;101261.41;;;9.75;77.90
50684;BME280;36654;45.042;38.994;2023-04-04T02:48:38;101258.75;;;9.74;77.61
50684;BME280;36654;45.042;38.994;2023-04-04T02:51:05;101216.78;;;9.53;77.72
50684;BME280;36654;45.042;38.994;2023-04-04T02:53:31;101220.47;;;9.61;77.64
50684;BME280;36654;45.042;38.994;2023-04-04T02:55:56;101250.84;;;9.77;77.59
50684;BME280;36654;45.042;38.994;2023-04-04T02:58:22;101256.09;;;9.75;77.73
50684;BME280;36654;45.042;38.994;2023-04-04T03:00:54;101262.44;;;9.82;77.58
50684;BME280;36654;45.042;38.994;2023-04-04T03:03:20;101253.56;;;9.80;77.54
50684;BME280;36654;45.042;38.994;2023-04-04T03:05:45;101235.03;;;9.80;77.59
50684;BME280;36654;45.042;38.994;2023-04-04T03:08:13;101263.50;;;9.90;77.41
50684;BME280;36654;45.042;38.994;2023-04-04T03:10:39;101207.56;;;9.75;77.45
50684;BME280;36654;45.042;38.994;2023-04-04T03:13:05;101256.97;;;10.15;77.25
50684;BME280;36654;45.042;38.994;2023-04-04T03:15:31;101245.75;;;10.27;76.81
50684;BME280;36654;45.042;38.994;2023-04-04T03:17:57;101204.97;;;10.19;76.46
50684;BME280;36654;45.042;38.994;2023-04-04T03:20:23;101250.84;;;10.60;75.99
50684;BME280;36654;45.042;38.994;2023-04-04T03:22:50;101244.00;;;10.71;75.35
50684;BME280;36654;45.042;38.994;2023-04-04T03:25:15;101238.75;;;10.74;74.72
50684;BME280;36654;45.042;38.994;2023-04-04T03:27:41;101246.06;;;10.86;74.10
50684;BME280;36654;45.042;38.994;2023-04-04T03:30:07;101253.28;;;10.95;73.52
50684;BME280;36654;45.042;38.994;2023-04-04T03:32:33;101247.47;;;11.16;72.98
50684;BME280;36654;45.042;38.994;2023-04-04T03:35:00;101243.38;;;11.38;72.35
50684;BME280;36654;45.042;38.994;2023-04-04T03:37:25;101238.38;;;11.56;71.52
50684;BME280;36654;45.042;38.994;2023-04-04T03:39:51;101188.88;;;11.63;70.79
50684;BME280;36654;45.042;38.994;2023-04-04T03:42:16;101243.66;;;12.17;69.60
50684;BME280;36654;45.042;38.994;2023-04-04T03:44:42;101240.38;;;12.37;68.20
50684;BME280;36654;45.042;38.994;2023-04-04T03:47:08;101238.75;;;12.51;67.34
50684;BME280;36654;45.042;38.994;2023-04-04T03:49:34;101246.13;;;12.77;66.98
50684;BME280;36654;45.042;38.994;2023-04-04T03:51:59;101249.81;;;12.91;66.01
50684;BME280;36654;45.042;38.994;2023-04-04T03:54:27;101250.81;;;13.02;65.30
50684;BME280;36654;45.042;38.994;2023-04-04T03:56:53;101252.81;;;13.28;64.64
50684;BME280;36654;45.042;38.994;2023-04-04T03:59:19;101252.13;;;13.50;63.80
50684;BME280;36654;45.042;38.994;2023-04-04T04:01:45;101198.84;;;13.47;62.99
50684;BME280;36654;45.042;38.994;2023-04-04T04:04:11;101207.94;;;13.83;62.14
50684;BME280;36654;45.042;38.994;2023-04-04T04:06:37;101243.69;;;14.28;61.14
50684;BME280;36654;45.042;38.994;2023-04-04T04:09:02;101186.78;;;14.29;60.54
50684;BME280;36654;45.042;38.994;2023-04-04T04:11:28;101240.31;;;14.78;59.54
50684;BME280;36654;45.042;38.994;2023-04-04T04:13:54;101238.56;;;15.06;58.60
50684;BME280;36654;45.042;38.994;2023-04-04T04:16:20;101252.81;;;15.07;57.32
50684;BME280;36654;45.042;38.994;2023-04-04T04:18:48;101250.13;;;14.78;57.13
50684;BME280;36654;45.042;38.994;2023-04-04T04:21:14;101250.00;;;14.52;57.84
50684;BME280;36654;45.042;38.994;2023-04-04T04:23:39;101225.94;;;14.39;58.41
50684;BME280;36654;45.042;38.994;2023-04-04T04:26:05;101223.16;;;14.09;58.58
50684;BME280;36654;45.042;38.994;2023-04-04T04:28:31;101243.66;;;14.16;58.82
50684;BME280;36654;45.042;38.994;2023-04-04T04:31:07;101248.03;;;14.08;59.30
50684;BME280;36654;45.042;38.994;2023-04-04T04:33:32;101234.69;;;14.05;59.41
50684;BME280;36654;45.042;38.994;2023-04-04T04:36:02;101241.00;;;14.23;59.50
50684;BME280;36654;45.042;38.994;2023-04-04T04:38:29;101245.50;;;14.35;58.72
50684;BME280;36654;45.042;38.994;2023-04-04T04:40:55;101225.03;;;14.30;58.63
50684;BME280;36654;45.042;38.994;2023-04-04T04:43:22;101258.00;;;14.45;58.53
50684;BME280;36654;45.042;38.994;2023-04-04T04:45:47;101255.28;;;14.39;58.41
50684;BME280;36654;45.042;38.994;2023-04-04T04:48:14;101234.84;;;14.35;58.65
50684;BME280;36654;45.042;38.994;2023-04-04T04:50:45;101241.03;;;14.34;59.04
50684;BME280;36654;45.042;38.994;2023-04-04T04:53:11;101247.25;;;14.30;58.91
50684;BME280;36654;45.042;38.994;2023-04-04T04:55:37;101250.78;;;14.26;59.29
50684;BME280;36654;45.042;38.994;2023-04-04T04:58:02;101231.25;;;14.30;59.26
50684;BME280;36654;45.042;38.994;2023-04-04T05:00:29;101198.25;;;14.05;59.17
50684;BME280;36654;45.042;38.994;2023-04-04T05:02:55;101225.91;;;14.24;59.45
50684;BME280;36654;45.042;38.994;2023-04-04T05:05:21;101225.91;;;14.27;59.29
50684;BME280;36654;45.042;38.994;2023-04-04T05:07:47;101210.84;;;14.35;59.07
50684;BME280;36654;45.042;38.994;2023-04-04T05:10:13;101227.81;;;14.65;58.73
50684;BME280;36654;45.042;38.994;2023-04-04T05:12:43;101202.03;;;14.53;58.36
50684;BME280;36654;45.042;38.994;2023-04-04T05:15:10;101196.63;;;14.38;58.74
50684;BME280;36654;45.042;38.994;2023-04-04T05:17:36;101203.69;;;14.27;59.36
50684;BME280;36654;45.042;38.994;2023-04-04T05:20:01;101188.50;;;14.09;60.04
50684;BME280;36654;45.042;38.994;2023-04-04T05:22:27;101190.22;;;13.91;60.55
50684;BME280;36654;45.042;38.994;2023-04-04T05:24:53;101188.38;;;13.78;60.97
50684;BME280;36654;45.042;38.994;2023-04-04T05:27:19;101183.94;;;13.75;61.33
50684;BME280;36654;45.042;38.994;2023-04-04T05:29:44;101184.75;;;13.70;61.77
50684;BME280;36654;45.042;38.994;2023-04-04T05:32:11;101180.25;;;13.59;61.69
50684;BME280;36654;45.042;38.994;2023-04-04T05:34:37;101179.34;;;13.51;62.17
50684;BME280;36654;45.042;38.994;2023-04-04T05:37:03;101174.00;;;13.48;62.33
50684;BME280;36654;45.042;38.994;2023-04-04T05:39:28;101181.09;;;13.52;62.26
50684;BME280;36654;45.042;38.994;2023-04-04T05:41:54;101181.09;;;13.49;62.47
50684;BME280;36654;45.042;38.994;2023-04-04T05:44:19;101181.09;;;13.49;62.57
50684;BME280;36654;45.042;38.994;2023-04-04T05:46:45;101131.25;;;13.30;62.59
50684;BME280;36654;45.042;38.994;2023-04-04T05:49:11;101180.31;;;13.64;62.75
50684;BME280;36654;45.042;38.994;2023-04-04T05:51:36;101152.72;;;13.54;62.66
50684;BME280;36654;45.042;38.994;2023-04-04T05:54:02;101124.28;;;13.50;62.64
50684;BME280;36654;45.042;38.994;2023-04-04T05:56:27;101176.78;;;13.74;62.59
50684;BME280;36654;45.042;38.994;2023-04-04T05:58:53;101158.09;;;13.67;62.84
50684;BME280;36654;45.042;38.994;2023-04-04T06:01:19;101126.06;;;13.51;63.31
50684;BME280;36654;45.042;38.994;2023-04-04T06:03:44;101161.63;;;13.59;63.26
50684;BME280;36654;45.042;38.994;2023-04-04T06:06:12;101166.03;;;13.54;63.83
50684;BME280;36654;45.042;38.994;2023-04-04T06:08:38;101168.69;;;13.54;63.80
50684;BME280;36654;45.042;38.994;2023-04-04T06:11:03;101113.53;;;13.32;64.13
50684;BME280;36654;45.042;38.994;2023-04-04T06:13:29;101165.16;;;13.54;64.18
50684;BME280;36654;45.042;38.994;2023-04-04T06:15:55;101156.22;;;13.47;64.44
50684;BME280;36654;45.042;38.994;2023-04-04T06:18:20;101164.22;;;13.49;64.54
50684;BME280;36654;45.042;38.994;2023-04-04T06:20:46;101112.63;;;13.30;64.91
50684;BME280;36654;45.042;38.994;2023-04-04T06:23:11;101162.44;;;13.49;65.27
50684;BME280;36654;45.042;38.994;2023-04-04T06:25:37;101114.44;;;13.34;65.30
50684;BME280;36654;45.042;38.994;2023-04-04T06:28:03;101125.09;;;13.37;65.34
50684;BME280;36654;45.042;38.994;2023-04-04T06:30:29;101158.09;;;13.64;65.44
50684;BME280;36654;45.042;38.994;2023-04-04T06:32:55;101165.22;;;13.72;65.58
50684;BME280;36654;45.042;38.994;2023-04-04T06:35:21;101158.19;;;13.82;65.58
50684;BME280;36654;45.042;38.994;2023-04-04T06:37:51;101147.53;;;13.82;65.26
50684;BME280;36654;45.042;38.994;2023-04-04T06:40:18;101127.97;;;13.77;65.17
50684;BME280;36654;45.042;38.994;2023-04-04T06:42:48;101109.28;;;13.69;65.00
50684;BME280;36654;45.042;38.994;2023-04-04T06:45:15;101074.59;;;13.55;65.02
50684;BME280;36654;45.042;38.994;2023-04-04T06:47:41;101136.06;;;13.95;64.96
50684;BME280;36654;45.042;38.994;2023-04-04T06:50:08;101140.47;;;13.99;65.11
50684;BME280;36654;45.042;38.994;2023-04-04T06:52:34;101139.59;;;13.99;65.33
50684;BME280;36654;45.042;38.994;2023-04-04T06:54:59;101134.28;;;14.00;65.12
50684;BME280;36654;45.042;38.994;2023-04-04T06:57:25;101085.31;;;13.80;65.19
50684;BME280;36654;45.042;38.994;2023-04-04T06:59:51;101134.34;;;14.13;65.22
50684;BME280;36654;45.042;38.994;2023-04-04T07:02:16;101113.88;;;14.12;65.29
50684;BME280;36654;45.042;38.994;2023-04-04T07:04:42;101133.47;;;14.23;65.57
50684;BME280;36654;45.042;38.994;2023-04-04T07:07:11;101101.44;;;14.11;65.26
50684;BME280;36654;45.042;38.994;2023-04-04T07:09:36;101119.25;;;14.32;65.55
50684;BME280;36654;45.042;38.994;2023-04-04T07:12:02;101100.59;;;14.38;65.45
50684;BME280;36654;45.042;38.994;2023-04-04T07:14:28;101106.88;;;14.54;65.60
50684;BME280;36654;45.042;38.994;2023-04-04T07:16:54;101113.97;;;14.67;65.14
50684;BME280;36654;45.042;38.994;2023-04-04T07:19:19;101110.44;;;14.71;64.73
50684;BME280;36654;45.042;38.994;2023-04-04T07:21:48;101099.75;;;14.71;63.96
50684;BME280;36654;45.042;38.994;2023-04-04T07:24:14;101057.06;;;14.65;64.30
50684;BME280;36654;45.042;38.994;2023-04-04T07:26:40;101083.75;;;14.91;64.12
50684;BME280;36654;45.042;38.994;2023-04-04T07:29:08;100999.25;;;14.49;63.74
50684;BME280;36654;45.042;38.994;2023-04-04T07:31:34;100996.56;;;14.49;62.42
50684;BME280;36654;45.042;38.994;2023-04-04T07:34:00;101092.59;;;15.19;62.12
50684;BME280;36654;45.042;38.994;2023-04-04T07:36:26;101089.91;;;15.22;61.94
50684;BME280;36654;45.042;38.994;2023-04-04T07:38:51;101061.44;;;15.18;61.43
50684;BME280;36654;45.042;38.994;2023-04-04T07:41:17;101085.41;;;15.43;61.36
50684;BME280;36654;45.042;38.994;2023-04-04T07:43:48;101031.16;;;15.25;61.11
50684;BME280;36654;45.042;38.994;2023-04-04T07:46:15;101088.00;;;15.70;60.81
50684;BME280;36654;45.042;38.994;2023-04-04T07:48:40;101068.34;;;15.82;60.36
50684;BME280;36654;45.042;38.994;2023-04-04T07:51:06;101069.19;;;15.92;60.39
50684;BME280;36654;45.042;38.994;2023-04-04T07:53:32;101051.31;;;16.03;60.04
50684;BME280;36654;45.042;38.994;2023-04-04T07:56:00;101061.88;;;16.22;58.93
50684;BME280;36654;45.042;38.994;2023-04-04T07:58:34;101063.56;;;16.35;58.95
50684;BME280;36654;45.042;38.994;2023-04-04T08:01:01;101036.78;;;16.36;58.07
50684;BME280;36654;45.042;38.994;2023-04-04T08:03:28;101041.94;;;16.59;57.01
50684;BME280;36654;45.042;38.994;2023-04-04T08:05:54;101037.34;;;16.75;56.12
50684;BME280;36654;45.042;38.994;2023-04-04T08:08:20;101029.28;;;16.83;55.29
50684;BME280;36654;45.042;38.994;2023-04-04T08:10:45;101047.88;;;17.00;55.35
50684;BME280;36654;45.042;38.994;2023-04-04T08:13:11;100988.22;;;16.84;54.42
50684;BME280;36654;45.042;38.994;2023-04-04T08:15:38;101041.38;;;17.21;51.06
50684;BME280;36654;45.042;38.994;2023-04-04T08:18:04;101054.63;;;17.32;50.23
50684;BME280;36654;45.042;38.994;2023-04-04T08:20:29;101000.47;;;17.07;49.42
50684;BME280;36654;45.042;38.994;2023-04-04T08:22:55;101035.84;;;17.36;48.82
50684;BME280;36654;45.042;38.994;2023-04-04T08:25:21;101027.66;;;17.47;48.94
50684;BME280;36654;45.042;38.994;2023-04-04T08:27:47;101034.72;;;17.54;49.15
50684;BME280;36654;45.042;38.994;2023-04-04T08:30:13;101027.44;;;17.65;48.07
50684;BME280;36654;45.042;38.994;2023-04-04T08:32:41;101013.97;;;17.70;48.42
50684;BME280;36654;45.042;38.994;2023-04-04T08:35:08;101028.06;;;17.86;48.07
50684;BME280;36654;45.042;38.994;2023-04-04T08:37:34;101005.75;;;17.84;47.79
50684;BME280;36654;45.042;38.994;2023-04-04T08:40:03;101024.53;;;17.84;46.88
50684;BME280;36654;45.042;38.994;2023-04-04T08:42:29;101004.75;;;17.93;46.64
50684;BME280;36654;45.042;38.994;2023-04-04T08:44:58;101015.38;;;17.99;46.73
50684;BME280;36654;45.042;38.994;2023-04-04T08:47:27;100994.91;;;17.93;46.18
50684;BME280;36654;45.042;38.994;2023-04-04T08:49:55;100954.84;;;17.82;46.50
50684;BME280;36654;45.042;38.994;2023-04-04T08:52:26;101002.50;;;18.21;46.19
50684;BME280;36654;45.042;38.994;2023-04-04T08:54:53;101006.81;;;18.31;46.45
50684;BME280;36654;45.042;38.994;2023-04-04T08:57:19;100997.06;;;18.25;46.16
50684;BME280;36654;45.042;38.994;2023-04-04T08:59:45;100980.84;;;18.31;46.74
50684;BME280;36654;45.042;38.994;2023-04-04T09:02:45;100994.88;;;18.49;45.58
50684;BME280;36654;45.042;38.994;2023-04-04T09:05:10;100971.78;;;18.39;46.38
50684;BME280;36654;45.042;38.994;2023-04-04T09:07:37;100981.50;;;18.47;46.62
50684;BME280;36654;45.042;38.994;2023-04-04T09:10:03;100981.41;;;18.52;45.30
50684;BME280;36654;45.042;38.994;2023-04-04T09:12:31;100986.59;;;18.63;45.92
50684;BME280;36654;45.042;38.994;2023-04-04T09:15:00;100999.81;;;18.73;45.92
50684;BME280;36654;45.042;38.994;2023-04-04T09:17:27;100950.09;;;18.51;45.20
50684;BME280;36654;45.042;38.994;2023-04-04T09:19:54;100983.84;;;18.64;45.36
50684;BME280;36654;45.042;38.994;2023-04-04T09:22:19;100969.50;;;18.67;44.09
50684;BME280;36654;45.042;38.994;2023-04-04T09:24:48;100969.34;;;18.74;44.00
50684;BME280;36654;45.042;38.994;2023-04-04T09:27:19;100982.78;;;18.78;43.06
50684;BME280;36654;45.042;38.994;2023-04-04T09:29:47;100958.66;;;18.71;42.83
50684;BME280;36654;45.042;38.994;2023-04-04T09:32:19;100959.34;;;18.84;42.93
50684;BME280;36654;45.042;38.994;2023-04-04T09:34:46;100963.91;;;18.81;43.98
50684;BME280;36654;45.042;38.994;2023-04-04T09:37:15;100986.22;;;18.84;44.53
50684;BME280;36654;45.042;38.994;2023-04-04T09:39:41;100970.94;;;18.86;44.56
50684;BME280;36654;45.042;38.994;2023-04-04T09:42:07;100958.41;;;18.87;43.59
50684;BME280;36654;45.042;38.994;2023-04-04T09:44:34;100960.91;;;18.96;43.86
50684;BME280;36654;45.042;38.994;2023-04-04T09:47:33;100968.91;;;18.99;43.12
50684;BME280;36654;45.042;38.994;2023-04-04T09:50:06;100938.72;;;18.86;43.23
50684;BME280;36654;45.042;38.994;2023-04-04T09:52:32;100970.00;;;18.90;42.31
50684;BME280;36654;45.042;38.994;2023-04-04T09:55:01;100965.78;;;18.75;43.29
50684;BME280;36654;45.042;38.994;2023-04-04T09:57:29;100968.31;;;18.85;43.80
50684;BME280;36654;45.042;38.994;2023-04-04T09:59:56;100943.16;;;18.89;44.71
50684;BME280;36654;45.042;38.994;2023-04-04T10:02:23;100943.84;;;19.00;44.79
50684;BME280;36654;45.042;38.994;2023-04-04T10:04:48;100950.84;;;19.07;45.10
50684;BME280;36654;45.042;38.994;2023-04-04T10:07:14;100945.47;;;19.07;44.77
50684;BME280;36654;45.042;38.994;2023-04-04T10:09:40;100919.56;;;19.05;45.29
50684;BME280;36654;45.042;38.994;2023-04-04T10:12:08;100957.03;;;19.11;44.57
50684;BME280;36654;45.042;38.994;2023-04-04T10:14:34;100940.22;;;19.01;44.54
50684;BME280;36654;45.042;38.994;2023-04-04T10:17:06;100934.78;;;19.04;45.50
50684;BME280;36654;45.042;38.994;2023-04-04T10:19:34;100915.25;;;18.96;45.49
50684;BME280;36654;45.042;38.994;2023-04-04T10:22:02;100913.34;;;19.01;44.98
50684;BME280;36654;45.042;38.994;2023-04-04T10:24:28;100925.56;;;19.17;44.21
50684;BME280;36654;45.042;38.994;2023-04-04T10:26:54;100903.19;;;19.17;42.64
50684;BME280;36654;45.042;38.994;2023-04-04T10:29:19;100918.03;;;19.35;42.46
50684;BME280;36654;45.042;38.994;2023-04-04T10:31:49;100920.56;;;19.41;41.19
50684;BME280;36654;45.042;38.994;2023-04-04T10:36:45;100914.19;;;19.45;40.83
50684;BME280;36654;45.042;38.994;2023-04-04T10:39:22;100897.63;;;19.25;40.12
50684;BME280;36654;45.042;38.994;2023-04-04T10:41:51;100905.53;;;19.32;39.65
50684;BME280;36654;45.042;38.994;2023-04-04T10:44:32;100901.88;;;19.35;39.49
50684;BME280;36654;45.042;38.994;2023-04-04T10:47:19;100857.63;;;19.11;39.88
50684;BME280;36654;45.042;38.994;2023-04-04T10:49:49;100882.16;;;19.36;40.30
50684;BME280;36654;45.042;38.994;2023-04-04T10:52:17;100881.09;;;19.43;40.29
50684;BME280;36654;45.042;38.994;2023-04-04T10:54:44;100899.75;;;19.49;40.99
50684;BME280;36654;45.042;38.994;2023-04-04T10:57:11;100903.28;;;19.51;41.08
50684;BME280;36654;45.042;38.994;2023-04-04T10:59:59;100888.94;;;19.52;40.58
50684;BME280;36654;45.042;38.994;2023-04-04T11:02:58;100879.88;;;19.56;40.31
50684;BME280;36654;45.042;38.994;2023-04-04T11:05:31;100874.44;;;19.59;40.85
50684;BME280;36654;45.042;38.994;2023-04-04T11:08:03;100880.63;;;19.61;40.52
50684;BME280;36654;45.042;38.994;2023-04-04T11:10:35;100886.88;;;19.64;40.87
50684;BME280;36654;45.042;38.994;2023-04-04T11:13:07;100828.38;;;19.36;40.61
50684;BME280;36654;45.042;38.994;2023-04-04T11:16:04;100867.09;;;19.68;40.16
50684;BME280;36654;45.042;38.994;2023-04-04T11:21:00;100845.50;;;19.71;40.64
50684;BME280;36654;45.042;38.994;2023-04-04T11:23:26;100837.44;;;19.71;40.91
50684;BME280;36654;45.042;38.994;2023-04-04T11:25:56;100860.28;;;19.89;39.54
50684;BME280;36654;45.042;38.994;2023-04-04T11:34:04;100833.91;;;20.04;38.45
50684;BME280;36654;45.042;38.994;2023-04-04T11:39:06;100821.41;;;20.02;39.31
50684;BME280;36654;45.042;38.994;2023-04-04T11:44:28;100801.03;;;19.92;39.69
50684;BME280;36654;45.042;38.994;2023-04-04T11:47:17;100810.81;;;19.94;39.92
50684;BME280;36654;45.042;38.994;2023-04-04T11:49:45;100812.59;;;19.95;39.57
50684;BME280;36654;45.042;38.994;2023-04-04T11:52:17;100815.25;;;19.97;39.77
50684;BME280;36654;45.042;38.994;2023-04-04T11:54:44;100826.91;;;19.97;39.62
50684;BME280;36654;45.042;38.994;2023-04-04T11:57:12;100809.91;;;19.95;39.61
50684;BME280;36654;45.042;38.994;2023-04-04T11:59:39;100796.59;;;19.89;39.43
50684;BME280;36654;45.042;38.994;2023-04-04T12:02:07;100803.69;;;19.93;40.06
50684;BME280;36654;45.042;38.994;2023-04-04T12:04:33;100819.91;;;19.90;40.40
50684;BME280;36654;45.042;38.994;2023-04-04T12:07:00;100794.66;;;19.96;40.20
50684;BME280;36654;45.042;38.994;2023-04-04T12:09:26;100814.28;;;19.99;39.88
50684;BME280;36654;45.042;38.994;2023-04-04T12:11:53;100804.31;;;20.03;39.46
50684;BME280;36654;45.042;38.994;2023-04-04T12:14:21;100806.03;;;20.07;39.30
50684;BME280;36654;45.042;38.994;2023-04-04T12:16:49;100785.38;;;20.08;39.25
50684;BME280;36654;45.042;38.994;2023-04-04T12:19:16;100771.16;;;20.02;39.30
50684;BME280;36654;45.042;38.994;2023-04-04T12:21:43;100782.56;;;20.12;39.58
50684;BME280;36654;45.042;38.994;2023-04-04T12:24:09;100779.75;;;20.17;39.00
50684;BME280;36654;45.042;38.994;2023-04-04T12:26:40;100786.06;;;20.14;38.56
50684;BME280;36654;45.042;38.994;2023-04-04T12:29:08;100778.91;;;20.15;38.71
50684;BME280;36654;45.042;38.994;2023-04-04T12:31:35;100776.22;;;20.15;38.11
50684;BME280;36654;45.042;38.994;2023-04-04T12:34:02;100790.41;;;20.20;38.37
50684;BME280;36654;45.042;38.994;2023-04-04T12:36:29;100772.41;;;20.22;38.06
50684;BME280;36654;45.042;38.994;2023-04-04T12:39:06;100752.63;;;20.23;38.57
50684;BME280;36654;45.042;38.994;2023-04-04T12:41:33;100761.56;;;20.25;38.78
50684;BME280;36654;45.042;38.994;2023-04-04T12:44:05;100767.84;;;20.24;38.19
50684;BME280;36654;45.042;38.994;2023-04-04T12:46:37;100758.22;;;20.17;38.25
50684;BME280;36654;45.042;38.994;2023-04-04T12:49:09;100750.94;;;20.19;38.69
50684;BME280;36654;45.042;38.994;2023-04-04T12:51:36;100740.16;;;20.20;38.97
50684;BME280;36654;45.042;38.994;2023-04-04T12:54:05;100737.38;;;20.23;39.26
50684;BME280;36654;45.042;38.994;2023-04-04T12:56:33;100734.75;;;20.22;39.09
50684;BME280;36654;45.042;38.994;2023-04-04T12:59:00;100736.41;;;20.26;38.69
50684;BME280;36654;45.042;38.994;2023-04-04T13:01:28;100724.78;;;20.24;39.00